createdAt,value
2017-08-19T00:00:22.930Z,1.90
2017-08-19T00:02:49.504Z,2.20
2017-08-19T00:05:15.775Z,1.97
2017-08-19T00:07:42.064Z,1.43
2017-08-19T00:10:08.374Z,1.40
2017-08-19T00:12:36.929Z,2.00
2017-08-19T00:15:04.013Z,1.77
2017-08-19T00:17:31.265Z,1.90
2017-08-19T00:20:00.531Z,1.73
2017-08-19T00:22:27.759Z,1.80
2017-08-19T00:24:56.990Z,1.40
2017-08-19T00:27:24.245Z,1.63
2017-08-19T00:29:51.308Z,1.60
2017-08-19T00:32:17.574Z,1.80
2017-08-19T00:34:44.863Z,1.80
2017-08-19T00:37:11.139Z,1.60
2017-08-19T00:39:38.772Z,1.27
2017-08-19T00:42:05.084Z,1.43
2017-08-19T00:44:31.358Z,1.50
2017-08-19T00:46:57.650Z,1.53
2017-08-19T00:49:23.999Z,1.30
2017-08-19T00:51:50.283Z,2.03
2017-08-19T00:54:16.606Z,1.70
2017-08-19T00:56:42.880Z,1.83
2017-08-19T00:59:09.176Z,1.53
2017-08-19T01:01:35.478Z,1.73
2017-08-19T01:04:01.780Z,1.60
2017-08-19T01:06:28.111Z,1.77
2017-08-19T01:08:54.448Z,1.03
2017-08-19T01:11:20.754Z,1.77
2017-08-19T01:13:47.080Z,1.50
2017-08-19T01:16:13.381Z,1.67
2017-08-19T01:18:39.666Z,2.13
2017-08-19T01:21:06.009Z,2.20
2017-08-19T01:23:32.334Z,1.47
2017-08-19T01:26:10.890Z,1.27
2017-08-19T01:28:37.157Z,1.50
2017-08-19T01:31:03.492Z,1.23
2017-08-19T01:33:29.745Z,1.30
2017-08-19T01:35:56.044Z,1.10
2017-08-19T01:38:22.310Z,1.20
2017-08-19T01:40:48.592Z,1.40
2017-08-19T01:43:14.861Z,1.30
2017-08-19T01:45:41.148Z,1.50
2017-08-19T01:48:07.455Z,1.20
2017-08-19T01:50:33.752Z,1.20
2017-08-19T01:53:00.014Z,1.27
2017-08-19T01:55:26.293Z,1.50
2017-08-19T01:57:52.577Z,1.63
2017-08-19T02:00:18.926Z,1.40
2017-08-19T02:02:45.185Z,1.37
2017-08-19T02:05:11.497Z,1.30
2017-08-19T02:07:37.786Z,1.50
2017-08-19T02:10:04.703Z,1.23
2017-08-19T02:12:30.993Z,1.73
2017-08-19T02:14:57.303Z,1.57
2017-08-19T02:17:23.594Z,1.50
2017-08-19T02:19:49.874Z,1.60
2017-08-19T02:22:16.152Z,1.40
2017-08-19T02:24:42.430Z,1.63
2017-08-19T02:27:08.701Z,1.30
2017-08-19T02:29:34.955Z,1.40
2017-08-19T02:32:01.239Z,1.40
2017-08-19T02:34:27.509Z,1.13
2017-08-19T02:36:53.805Z,1.20
2017-08-19T02:39:20.086Z,1.37
2017-08-19T02:41:46.893Z,1.23
2017-08-19T02:44:13.165Z,1.13
2017-08-19T02:46:39.445Z,1.20
2017-08-19T02:49:05.726Z,1.30
2017-08-19T02:51:32.933Z,1.60
2017-08-19T02:53:59.211Z,1.40
2017-08-19T02:56:25.803Z,1.30
2017-08-19T02:58:52.125Z,1.60
2017-08-19T03:01:18.402Z,1.57
2017-08-19T03:03:44.691Z,1.50
2017-08-19T03:06:10.978Z,1.70
2017-08-19T03:08:37.584Z,1.33
2017-08-19T03:11:03.850Z,1.20
2017-08-19T03:13:30.104Z,1.50
2017-08-19T03:15:56.390Z,1.57
2017-08-19T03:18:22.650Z,1.40
2017-08-19T03:20:48.957Z,1.30
2017-08-19T03:23:15.231Z,1.60
2017-08-19T03:25:41.493Z,1.30
2017-08-19T03:28:07.794Z,1.90
2017-08-19T03:30:34.070Z,1.60
2017-08-19T03:33:00.369Z,1.57
2017-08-19T03:35:26.658Z,1.50
2017-08-19T03:37:52.928Z,1.60
2017-08-19T03:40:19.219Z,1.50
2017-08-19T03:42:45.491Z,1.60
2017-08-19T03:45:11.762Z,1.40
2017-08-19T03:47:38.059Z,1.60
2017-08-19T03:50:04.324Z,1.20
2017-08-19T03:52:30.573Z,1.43
2017-08-19T03:54:56.857Z,1.63
2017-08-19T03:57:23.921Z,1.50
2017-08-19T03:59:50.220Z,1.80
2017-08-19T04:02:16.506Z,1.40
2017-08-19T04:04:42.826Z,1.30
2017-08-19T04:07:09.103Z,1.40
2017-08-19T04:09:35.371Z,1.30
2017-08-19T04:12:01.641Z,1.20
2017-08-19T04:14:27.962Z,1.70
2017-08-19T04:16:54.231Z,1.33
2017-08-19T04:19:20.516Z,1.33
2017-08-19T04:21:46.785Z,1.43
2017-08-19T04:24:13.065Z,1.27
2017-08-19T04:26:39.353Z,1.40
2017-08-19T04:29:05.645Z,1.60
2017-08-19T04:31:31.917Z,1.67
2017-08-19T04:33:58.215Z,1.40
2017-08-19T04:36:24.546Z,1.40
2017-08-19T04:38:50.818Z,1.23
2017-08-19T04:41:17.105Z,1.70
2017-08-19T04:43:43.652Z,1.70
2017-08-19T04:46:09.904Z,1.53
2017-08-19T04:48:36.168Z,1.80
2017-08-19T04:51:02.469Z,1.90
2017-08-19T04:53:28.737Z,1.50
2017-08-19T04:55:55.015Z,1.80
2017-08-19T04:58:21.311Z,1.67
2017-08-19T05:00:47.593Z,1.67
2017-08-19T05:03:13.845Z,2.10
2017-08-19T05:05:40.289Z,1.80
2017-08-19T05:08:06.564Z,2.00
2017-08-19T05:10:32.824Z,1.37
2017-08-19T05:12:59.110Z,1.63
2017-08-19T05:15:25.396Z,1.60
2017-08-19T05:17:51.682Z,1.67
2017-08-19T05:20:17.963Z,1.53
2017-08-19T05:22:44.213Z,1.90
2017-08-19T05:25:10.500Z,1.70
2017-08-19T05:27:36.787Z,1.37
2017-08-19T05:30:03.083Z,1.57
2017-08-19T05:32:29.375Z,1.67
2017-08-19T05:34:55.689Z,2.07
2017-08-19T05:37:21.941Z,1.80
2017-08-19T05:39:48.257Z,1.57
2017-08-19T05:42:14.525Z,1.60
2017-08-19T05:44:40.792Z,1.70
2017-08-19T05:47:07.074Z,1.70
2017-08-19T05:49:33.341Z,1.90
2017-08-19T05:51:59.631Z,1.70
2017-08-19T05:54:25.910Z,1.77
2017-08-19T05:56:52.193Z,2.57
2017-08-19T05:59:18.459Z,2.60
2017-08-19T06:01:44.753Z,1.80
2017-08-19T06:04:11.020Z,1.60
2017-08-19T06:06:37.290Z,1.87
2017-08-19T06:09:03.615Z,1.83
2017-08-19T06:11:29.932Z,1.93
2017-08-19T06:13:56.187Z,1.63
2017-08-19T06:16:22.458Z,1.97
2017-08-19T06:18:48.726Z,1.80
2017-08-19T06:21:15.039Z,1.50
2017-08-19T06:23:41.298Z,1.70
2017-08-19T06:26:07.588Z,1.70
2017-08-19T06:28:33.850Z,1.40
2017-08-19T06:31:00.174Z,1.73
2017-08-19T06:33:26.455Z,2.03
2017-08-19T06:35:52.746Z,1.60
2017-08-19T06:38:19.035Z,1.83
2017-08-19T06:40:45.316Z,1.73
2017-08-19T06:43:12.006Z,1.87
2017-08-19T06:45:38.290Z,2.00
2017-08-19T06:48:04.577Z,1.80
2017-08-19T06:50:30.873Z,1.90
2017-08-19T06:52:57.170Z,1.70
2017-08-19T06:55:23.429Z,2.10
2017-08-19T06:57:49.734Z,1.93
2017-08-19T07:00:16.001Z,2.40
2017-08-19T07:02:42.656Z,1.73
2017-08-19T07:05:08.951Z,1.90
2017-08-19T07:07:35.209Z,2.00
2017-08-19T07:10:01.502Z,1.47
2017-08-19T07:12:27.795Z,1.87
2017-08-19T07:14:54.096Z,2.00
2017-08-19T07:17:20.581Z,2.00
2017-08-19T07:19:47.026Z,2.20
2017-08-19T07:22:13.342Z,1.60
2017-08-19T07:24:39.655Z,1.87
2017-08-19T07:27:06.221Z,2.23
2017-08-19T07:29:32.532Z,1.87
2017-08-19T07:31:58.820Z,2.10
2017-08-19T07:34:25.097Z,2.07
2017-08-19T07:36:51.384Z,1.80
2017-08-19T07:39:17.693Z,1.83
2017-08-19T07:41:43.961Z,2.00
2017-08-19T07:44:10.253Z,2.67
2017-08-19T07:46:36.530Z,2.10
2017-08-19T07:49:03.241Z,1.97
2017-08-19T07:51:29.543Z,1.83
2017-08-19T07:53:55.813Z,1.80
2017-08-19T07:56:22.127Z,2.07
2017-08-19T07:58:48.431Z,1.60
2017-08-19T08:01:14.714Z,1.90
2017-08-19T08:03:41.019Z,2.07
2017-08-19T08:06:07.329Z,2.33
2017-08-19T08:08:33.601Z,1.50
2017-08-19T08:10:59.912Z,1.80
2017-08-19T08:13:26.182Z,2.10
2017-08-19T08:15:52.774Z,2.27
2017-08-19T08:18:19.037Z,1.70
2017-08-19T08:20:45.304Z,1.80
2017-08-19T08:23:11.591Z,1.70
2017-08-19T08:25:37.890Z,1.63
2017-08-19T08:28:04.175Z,2.30
2017-08-19T08:30:30.457Z,1.80
2017-08-19T08:32:57.010Z,2.40
2017-08-19T08:35:23.314Z,1.77
2017-08-19T08:37:49.580Z,1.87
2017-08-19T08:40:15.890Z,2.00
2017-08-19T08:42:42.215Z,1.60
2017-08-19T08:45:08.530Z,1.90
2017-08-19T08:47:34.808Z,1.67
2017-08-19T08:50:01.160Z,1.57
2017-08-19T08:52:28.090Z,1.83
2017-08-19T08:54:54.400Z,1.70
2017-08-19T08:57:21.448Z,1.50
2017-08-19T08:59:47.744Z,1.47
2017-08-19T09:02:14.038Z,1.50
2017-08-19T09:04:40.302Z,1.53
2017-08-19T09:07:06.602Z,1.07
2017-08-19T09:09:32.903Z,1.70
2017-08-19T09:11:59.213Z,1.17
2017-08-19T09:14:25.487Z,1.40
2017-08-19T09:16:51.789Z,1.70
2017-08-19T09:19:18.075Z,1.10
2017-08-19T09:21:44.360Z,1.20
2017-08-19T09:24:10.633Z,1.10
2017-08-19T09:26:37.221Z,1.30
2017-08-19T09:29:03.506Z,1.43
2017-08-19T09:31:29.772Z,1.10
2017-08-19T09:33:56.073Z,1.20
2017-08-19T09:36:22.361Z,1.33
2017-08-19T09:38:48.700Z,1.00
2017-08-19T09:41:14.974Z,1.27
2017-08-19T09:43:41.256Z,1.40
2017-08-19T09:46:07.560Z,1.20
2017-08-19T09:48:33.820Z,1.20
2017-08-19T09:51:00.127Z,1.47
2017-08-19T09:53:26.434Z,1.47
2017-08-19T09:55:52.743Z,1.33
2017-08-19T09:58:19.020Z,1.30
2017-08-19T10:00:45.383Z,1.10
2017-08-19T10:03:11.681Z,1.03
2017-08-19T10:05:37.945Z,0.90
2017-08-19T10:08:04.270Z,1.13
2017-08-19T10:10:42.738Z,1.20
2017-08-19T10:13:09.014Z,1.33
2017-08-19T10:15:35.294Z,1.50
2017-08-19T10:18:01.593Z,1.47
2017-08-19T10:20:27.862Z,1.97
2017-08-19T10:22:54.177Z,1.47
2017-08-19T10:25:20.448Z,1.40
2017-08-19T10:27:46.741Z,2.00
2017-08-19T10:30:13.042Z,1.50
2017-08-19T10:32:39.366Z,1.37
2017-08-19T10:35:05.704Z,1.43
2017-08-19T10:37:31.998Z,2.07
2017-08-19T10:39:58.306Z,1.47
2017-08-19T10:42:24.854Z,1.23
2017-08-19T10:44:51.130Z,1.40
2017-08-19T10:47:17.401Z,1.40
2017-08-19T10:49:43.671Z,1.93
2017-08-19T10:52:09.970Z,1.43
2017-08-19T10:54:36.249Z,1.33
2017-08-19T10:57:02.531Z,1.40
2017-08-19T10:59:28.838Z,1.23
2017-08-19T11:01:55.114Z,1.90
2017-08-19T11:04:21.410Z,1.40
2017-08-19T11:06:47.670Z,1.40
2017-08-19T11:09:13.967Z,1.83
2017-08-19T11:11:40.326Z,1.90
2017-08-19T11:14:06.623Z,1.73
2017-08-19T11:16:32.917Z,1.90
2017-08-19T11:18:59.168Z,1.60
2017-08-19T11:21:25.768Z,1.20
2017-08-19T11:23:52.037Z,1.30
2017-08-19T11:26:18.294Z,1.80
2017-08-19T11:28:44.602Z,1.33
2017-08-19T11:31:10.888Z,1.90
2017-08-19T11:33:37.179Z,1.40
2017-08-19T11:36:03.472Z,1.50
2017-08-19T11:38:29.752Z,1.30
2017-08-19T11:40:56.034Z,1.67
2017-08-19T11:43:22.384Z,1.63
2017-08-19T11:45:48.681Z,1.43
2017-08-19T11:48:14.976Z,1.57
2017-08-19T11:50:41.301Z,2.00
2017-08-19T11:53:07.622Z,1.47
2017-08-19T11:55:33.926Z,1.10
2017-08-19T11:58:00.293Z,1.50
2017-08-19T12:00:26.651Z,1.50
2017-08-19T12:02:52.913Z,1.20
2017-08-19T12:05:19.243Z,1.20
2017-08-19T12:07:45.561Z,1.40
2017-08-19T12:10:12.171Z,1.50
2017-08-19T12:12:38.447Z,1.40
2017-08-19T12:15:05.292Z,1.60
2017-08-19T12:17:31.600Z,1.97
2017-08-19T12:19:57.849Z,1.40
2017-08-19T12:22:24.147Z,1.27
2017-08-19T12:24:50.473Z,1.43
2017-08-19T12:27:16.770Z,1.90
2017-08-19T12:29:43.052Z,1.47
2017-08-19T12:32:09.355Z,1.80
2017-08-19T12:34:35.637Z,1.50
2017-08-19T12:37:02.264Z,1.60
2017-08-19T12:39:28.548Z,2.20
2017-08-19T12:41:55.384Z,1.70
2017-08-19T12:44:21.703Z,1.57
2017-08-19T12:46:48.077Z,1.50
2017-08-19T12:49:14.387Z,1.90
2017-08-19T12:51:40.659Z,1.60
2017-08-19T12:54:06.975Z,1.40
2017-08-19T12:56:33.238Z,1.80
2017-08-19T12:58:59.554Z,1.63
2017-08-19T13:01:25.845Z,1.30
2017-08-19T13:03:52.458Z,2.13
2017-08-19T13:06:18.701Z,1.70
2017-08-19T13:08:44.978Z,1.73
2017-08-19T13:11:11.249Z,1.50
2017-08-19T13:13:37.541Z,1.53
2017-08-19T13:16:03.849Z,1.57
2017-08-19T13:18:30.113Z,1.40
2017-08-19T13:20:56.664Z,1.87
2017-08-19T13:23:22.927Z,1.17
2017-08-19T13:25:49.227Z,1.80
2017-08-19T13:28:15.522Z,1.70
2017-08-19T13:30:41.851Z,1.97
2017-08-19T13:33:08.148Z,1.40
2017-08-19T13:35:34.424Z,1.40
2017-08-19T13:38:00.712Z,1.57
2017-08-19T13:40:27.036Z,1.50
2017-08-19T13:42:53.344Z,1.60
2017-08-19T13:45:19.652Z,1.40
2017-08-19T13:47:45.945Z,1.80
2017-08-19T13:50:12.197Z,1.57
2017-08-19T13:52:38.505Z,1.80
2017-08-19T13:55:04.789Z,1.83
2017-08-19T13:57:31.502Z,1.23
2017-08-19T13:59:57.771Z,1.63
2017-08-19T14:02:24.032Z,1.47
2017-08-19T14:04:50.334Z,1.60
2017-08-19T14:07:16.604Z,1.70
2017-08-19T14:09:42.874Z,1.67
2017-08-19T14:12:09.171Z,2.17
2017-08-19T14:14:35.529Z,1.57
2017-08-19T14:17:01.815Z,1.93
2017-08-19T14:19:28.119Z,1.70
2017-08-19T14:21:54.483Z,2.10
2017-08-19T14:24:20.806Z,1.63
2017-08-19T14:26:47.114Z,1.70
2017-08-19T14:29:13.424Z,1.30
2017-08-19T14:31:40.721Z,1.80
2017-08-19T14:34:07.017Z,1.27
2017-08-19T14:36:33.319Z,1.60
2017-08-19T14:39:01.367Z,1.40
2017-08-19T14:41:27.641Z,1.40
2017-08-19T14:43:53.933Z,1.43
2017-08-19T14:46:20.594Z,1.63
2017-08-19T14:48:46.880Z,1.60
2017-08-19T14:51:13.165Z,1.60
2017-08-19T14:53:39.464Z,1.60
2017-08-19T14:56:05.747Z,1.60
2017-08-19T14:58:32.067Z,1.83
2017-08-19T15:00:58.391Z,1.80
2017-08-19T15:03:24.675Z,1.50
2017-08-19T15:05:50.975Z,2.03
2017-08-19T15:08:17.279Z,1.80
2017-08-19T15:10:43.597Z,1.50
2017-08-19T15:13:09.903Z,1.73
2017-08-19T15:15:36.245Z,1.90
2017-08-19T15:18:02.522Z,2.03
2017-08-19T15:20:28.837Z,1.70
2017-08-19T15:22:55.158Z,1.83
2017-08-19T15:25:21.447Z,1.63
2017-08-19T15:27:47.752Z,1.90
2017-08-19T15:30:14.330Z,1.50
2017-08-19T15:32:40.613Z,1.60
2017-08-19T15:35:06.923Z,1.27
2017-08-19T15:37:33.218Z,1.83
2017-08-19T15:39:59.527Z,1.60
2017-08-19T15:42:25.850Z,1.87
2017-08-19T15:44:52.145Z,2.00
2017-08-19T15:47:18.762Z,1.60
2017-08-19T15:49:45.022Z,1.50
2017-08-19T15:52:11.344Z,1.60
2017-08-19T15:54:37.657Z,1.53
2017-08-19T15:57:03.936Z,1.90
2017-08-19T15:59:30.679Z,1.80
2017-08-19T16:01:56.952Z,1.70
2017-08-19T16:04:23.569Z,1.80
2017-08-19T16:06:49.862Z,1.60
2017-08-19T16:09:16.134Z,1.90
2017-08-19T16:11:42.428Z,1.90
2017-08-19T16:14:08.815Z,1.50
2017-08-19T16:16:35.225Z,2.10
2017-08-19T16:19:01.571Z,2.00
2017-08-19T16:21:28.028Z,1.50
2017-08-19T16:23:54.373Z,1.83
2017-08-19T16:26:20.750Z,2.00
2017-08-19T16:28:47.489Z,1.90
2017-08-19T16:31:13.777Z,2.20
2017-08-19T16:33:40.047Z,1.50
2017-08-19T16:36:06.346Z,2.00
2017-08-19T16:38:32.638Z,1.83
2017-08-19T16:40:58.960Z,1.90
2017-08-19T16:43:25.696Z,1.90
2017-08-19T16:45:52.012Z,2.03
2017-08-19T16:48:18.297Z,2.20
2017-08-19T16:50:44.602Z,2.00
2017-08-19T16:53:11.867Z,2.10
2017-08-19T16:55:38.201Z,1.90
2017-08-19T16:58:04.494Z,1.60
2017-08-19T17:00:30.827Z,2.43
2017-08-19T17:02:57.096Z,2.10
2017-08-19T17:05:23.401Z,1.90
2017-08-19T17:07:49.647Z,1.97
2017-08-19T17:10:16.237Z,2.67
2017-08-19T17:12:42.528Z,2.40
2017-08-19T17:15:08.869Z,2.40
2017-08-19T17:17:35.166Z,2.40
2017-08-19T17:20:01.467Z,2.43
2017-08-19T17:22:27.789Z,2.80
2017-08-19T17:24:54.086Z,2.83
2017-08-19T17:27:20.425Z,2.57
2017-08-19T17:29:46.707Z,3.30
2017-08-19T17:32:13.006Z,2.40
2017-08-19T17:34:39.299Z,2.67
2017-08-19T17:37:05.599Z,3.20
2017-08-19T17:39:31.894Z,2.63
2017-08-19T17:41:58.972Z,2.37
2017-08-19T17:44:25.274Z,2.63
2017-08-19T17:46:51.658Z,2.73
2017-08-19T17:49:18.010Z,3.03
2017-08-19T17:51:44.312Z,3.47
2017-08-19T17:54:10.613Z,3.33
2017-08-19T17:56:36.906Z,2.80
2017-08-19T17:59:03.205Z,3.20
2017-08-19T18:01:29.873Z,2.90
2017-08-19T18:03:56.139Z,2.77
2017-08-19T18:06:22.496Z,2.37
2017-08-19T18:08:48.806Z,2.60
2017-08-19T18:11:15.089Z,2.70
2017-08-19T18:13:41.393Z,3.40
2017-08-19T18:16:07.697Z,3.10
2017-08-19T18:18:34.996Z,3.10
2017-08-19T18:21:01.275Z,2.60
2017-08-19T18:23:27.996Z,3.17
2017-08-19T18:25:54.299Z,3.17
2017-08-19T18:28:20.665Z,2.97
2017-08-19T18:30:46.978Z,2.70
2017-08-19T18:33:13.241Z,2.73
2017-08-19T18:35:39.569Z,3.50
2017-08-19T18:38:05.884Z,2.90
2017-08-19T18:40:32.181Z,3.30
2017-08-19T18:42:59.239Z,3.03
2017-08-19T18:45:25.553Z,3.13
2017-08-19T18:47:51.882Z,3.33
2017-08-19T18:50:18.172Z,3.07
2017-08-19T18:52:44.483Z,3.17
2017-08-19T18:55:10.770Z,3.50
2017-08-19T18:57:37.067Z,2.73
2017-08-19T19:00:03.369Z,2.63
2017-08-19T19:02:29.719Z,2.60
2017-08-19T19:04:55.989Z,3.03
2017-08-19T19:07:22.291Z,3.53
2017-08-19T19:09:48.591Z,3.13
2017-08-19T19:12:15.045Z,3.00
2017-08-19T19:14:41.404Z,2.87
2017-08-19T19:17:07.709Z,2.90
2017-08-19T19:19:34.004Z,3.70
2017-08-19T19:22:00.272Z,3.30
2017-08-19T19:24:26.603Z,3.70
2017-08-19T19:26:53.038Z,3.60
2017-08-19T19:29:19.382Z,3.33
2017-08-19T19:31:45.844Z,2.83
2017-08-19T19:34:12.218Z,2.60
2017-08-19T19:36:38.510Z,3.30
2017-08-19T19:39:04.809Z,2.90
2017-08-19T19:41:31.588Z,2.83
2017-08-19T19:43:57.877Z,3.17
2017-08-19T19:46:24.183Z,3.50
2017-08-19T19:48:51.378Z,3.03
2017-08-19T19:51:17.685Z,3.17
2017-08-19T19:53:44.004Z,3.37
2017-08-19T19:56:10.267Z,3.10
2017-08-19T19:58:36.578Z,3.90
2017-08-19T20:01:02.845Z,3.40
2017-08-19T20:03:29.162Z,4.20
2017-08-19T20:05:55.506Z,3.37
2017-08-19T20:08:22.641Z,3.70
2017-08-19T20:10:48.944Z,3.43
2017-08-19T20:13:16.055Z,3.90
2017-08-19T20:15:42.451Z,3.50
2017-08-19T20:18:08.791Z,3.70
2017-08-19T20:20:35.098Z,4.13
2017-08-19T20:23:02.001Z,4.10
2017-08-19T20:25:28.314Z,3.60
2017-08-19T20:27:54.599Z,4.43
2017-08-19T20:30:20.917Z,3.70
2017-08-19T20:32:47.195Z,3.50
2017-08-19T20:35:13.943Z,3.60
2017-08-19T20:37:40.245Z,3.70
2017-08-19T20:40:06.531Z,3.40
2017-08-19T20:42:32.844Z,3.70
2017-08-19T20:44:59.143Z,3.30
2017-08-19T20:47:25.458Z,3.40
2017-08-19T20:49:51.759Z,3.15
2017-08-19T20:52:18.056Z,3.17
2017-08-19T20:54:44.354Z,3.20
2017-08-19T20:57:10.650Z,3.90
2017-08-19T20:59:36.968Z,3.53
2017-08-19T21:02:03.284Z,2.70
2017-08-19T21:04:29.614Z,3.45
2017-08-19T21:06:55.918Z,3.53
2017-08-19T21:09:22.235Z,3.40
2017-08-19T21:11:48.514Z,3.00
2017-08-19T21:14:15.336Z,3.53
2017-08-19T21:16:41.621Z,2.60
2017-08-19T21:19:07.922Z,2.62
2017-08-19T21:21:34.255Z,2.70
2017-08-19T21:24:00.561Z,3.07
2017-08-19T21:26:27.380Z,3.05
2017-08-19T21:28:54.601Z,3.23
2017-08-19T21:31:20.942Z,3.37
2017-08-19T21:33:47.208Z,2.70
2017-08-19T21:36:13.526Z,3.20
2017-08-19T21:38:39.818Z,2.97
2017-08-19T21:41:06.108Z,3.15
2017-08-19T21:43:32.417Z,2.58
2017-08-19T21:45:58.701Z,2.62
2017-08-19T21:48:25.018Z,3.10
2017-08-19T21:50:51.304Z,2.72
2017-08-19T21:53:18.403Z,2.70
2017-08-19T21:55:44.731Z,2.75
2017-08-19T21:58:11.048Z,2.22
2017-08-19T22:00:37.364Z,2.78
2017-08-19T22:03:03.709Z,2.70
2017-08-19T22:05:30.031Z,2.70
2017-08-19T22:07:56.288Z,2.70
2017-08-19T22:10:22.593Z,2.80
2017-08-19T22:12:48.875Z,2.50
2017-08-19T22:15:15.176Z,3.10
2017-08-19T22:17:41.467Z,3.20
2017-08-19T22:20:08.278Z,3.20
2017-08-19T22:22:34.557Z,3.10
2017-08-19T22:25:00.880Z,3.45
2017-08-19T22:27:28.006Z,3.53
2017-08-19T22:29:54.286Z,3.25
2017-08-19T22:32:20.601Z,3.47
2017-08-19T22:34:46.884Z,3.62
2017-08-19T22:37:13.196Z,3.67
2017-08-19T22:39:39.477Z,3.12
2017-08-19T22:42:05.775Z,2.58
2017-08-19T22:44:32.079Z,2.92
2017-08-19T22:46:58.846Z,2.47
2017-08-19T22:49:25.183Z,2.90
2017-08-19T22:51:51.466Z,3.25
2017-08-19T22:54:17.766Z,3.60
2017-08-19T22:56:44.037Z,2.90
2017-08-19T22:59:10.329Z,3.33
2017-08-19T23:01:36.621Z,2.83
2017-08-19T23:04:02.894Z,3.45
2017-08-19T23:06:29.164Z,3.40
2017-08-19T23:08:55.447Z,2.85
2017-08-19T23:11:21.719Z,2.95
2017-08-19T23:13:48.262Z,3.70
2017-08-19T23:16:14.548Z,2.92
2017-08-19T23:18:40.832Z,3.10
2017-08-19T23:21:07.117Z,2.97
2017-08-19T23:23:33.382Z,2.85
2017-08-19T23:25:59.691Z,3.15
2017-08-19T23:28:26.023Z,3.10
2017-08-19T23:30:52.328Z,3.50
2017-08-19T23:33:18.601Z,3.28
2017-08-19T23:35:44.900Z,3.37
2017-08-19T23:38:11.163Z,2.70
2017-08-19T23:40:37.456Z,3.00
2017-08-19T23:43:03.759Z,3.53
2017-08-19T23:45:30.024Z,2.47
2017-08-19T23:47:57.209Z,2.60
2017-08-19T23:50:23.453Z,1.92
2017-08-19T23:52:49.731Z,2.37
2017-08-19T23:55:16.008Z,2.12
2017-08-19T23:57:42.290Z,2.10
